Terminal Aerodrome Forecast
Issued by NWS

Home | Current Version | Previous Version | Text Only | Print | Product List | Glossary On
Versions: 1 2 3 4 5 6 7 8 9 10 11 12 13 14 15 16 17
787
FTUS42 KFFC 241244 AAA
TAFFTY
TAF AMD
KFTY 241244Z 2413/2512 26005KT 4SM BR BKN014 OVC020
     FM241500 26006KT 6SM BR OVC025
     FM241800 27010KT P6SM BKN035
      TEMPO 2419/2423 5SM -SHRA OVC025=

USA.gov is the U.S. government's official web portal to all federal, state and local government web resources and services.